EKT weather

Eskilstuna Airport
Eskilstuna, Södermanlands län, Sweden

Public forecast

Using degrees Celsius for public forecast. Weather courtesy of forecast.io.

METAR (pilot weather report)

Closest report is Stockholm Västerås Airport, 14.5 nm (26.8 km) N. Retrieved 2019/05/22 06:20 UTC (16 minutes ago):

ESOW 220620Z AUTO 03008KT 360V060 9999 NCD 16/10 Q1011

TAF (pilot weather forecast)

Forecast is more than 12 hours old.

Closest forecast is Stockholm Västerås Airport, 14.5 nm (26.8 km) N. Retrieved 2018/11/18 12:33 UTC (6 months ago):

TAF ESOW 181130Z 1812/1914 02015KT 9999 BKN020 TEMPO 1812/1814 02015G25KT